createdAt,value
2018-12-04T00:01:00.530Z,98438.04
2018-12-04T00:03:34.779Z,98448.16
2018-12-04T00:06:08.587Z,98448.06
2018-12-04T00:08:38.067Z,98443.64
2018-12-04T00:11:09.958Z,98451.75
2018-12-04T00:13:41.246Z,98451.55
2018-12-04T00:16:11.474Z,98453.77
2018-12-04T00:18:45.773Z,98439.19
2018-12-04T00:21:17.470Z,98443.88
2018-12-04T00:23:52.102Z,98448.78
2018-12-04T00:26:23.299Z,98458.14
2018-12-04T00:28:56.912Z,98454.34
2018-12-04T00:31:29.460Z,98448.38
2018-12-04T00:34:03.794Z,98455.30
2018-12-04T00:36:35.647Z,98459.33
2018-12-04T00:39:06.948Z,98474.72
2018-12-04T00:41:38.740Z,98468.42
2018-12-04T00:44:08.847Z,98476.54
2018-12-04T00:46:42.598Z,98481.41
2018-12-04T00:49:16.535Z,98483.36
2018-12-04T00:51:47.898Z,98477.63
2018-12-04T00:54:17.882Z,98486.95
2018-12-04T00:56:49.422Z,98489.00
2018-12-04T00:59:21.461Z,98488.47
2018-12-04T01:01:53.547Z,98488.92
2018-12-04T01:04:23.398Z,98492.98
2018-12-04T01:06:57.167Z,98494.50
2018-12-04T01:09:28.967Z,98502.61
2018-12-04T01:12:01.108Z,98510.66
2018-12-04T01:14:33.305Z,98481.58
2018-12-04T01:17:07.016Z,98520.31
2018-12-04T01:19:40.995Z,98513.48
2018-12-04T01:22:15.198Z,98517.11
2018-12-04T01:24:48.301Z,98523.18
2018-12-04T01:27:22.428Z,98532.38
2018-12-04T01:29:51.808Z,98530.51
2018-12-04T01:32:27.383Z,98529.38
2018-12-04T01:35:01.200Z,98537.52
2018-12-04T01:37:31.200Z,98540.56
2018-12-04T01:40:03.710Z,98550.09
2018-12-04T01:42:36.364Z,98546.30
2018-12-04T01:45:11.659Z,98553.22
2018-12-04T01:47:42.848Z,98553.02
2018-12-04T01:50:16.537Z,98552.48
2018-12-04T01:52:47.993Z,98556.57
2018-12-04T01:55:22.525Z,98551.66
2018-12-04T01:57:54.333Z,98558.25
2018-12-04T02:00:28.061Z,98560.59
2018-12-04T02:02:59.678Z,98572.95
2018-12-04T02:05:33.877Z,98575.36
2018-12-04T02:08:08.055Z,98571.41
2018-12-04T02:10:39.637Z,98575.95
2018-12-04T02:13:14.650Z,98584.50
2018-12-04T02:15:46.981Z,98580.27
2018-12-04T02:18:20.738Z,98580.80
2018-12-04T02:20:52.258Z,98584.48
2018-12-04T02:23:24.135Z,98586.88
2018-12-04T02:25:56.023Z,98591.65
2018-12-04T02:28:29.579Z,98600.09
2018-12-04T02:31:01.183Z,98599.55
2018-12-04T02:33:36.006Z,98598.94
2018-12-04T02:36:10.112Z,98603.66
2018-12-04T02:38:41.746Z,98613.89
2018-12-04T02:41:16.231Z,98610.70
2018-12-04T02:43:47.593Z,98610.28
2018-12-04T02:46:22.070Z,98608.38
2018-12-04T02:48:53.878Z,98608.71
2018-12-04T02:51:28.206Z,98613.78
2018-12-04T02:53:59.409Z,98617.88
2018-12-04T02:56:33.770Z,98621.17
2018-12-04T02:59:05.409Z,98624.14
2018-12-04T03:01:39.752Z,98625.13
2018-12-04T03:04:11.295Z,98622.03
2018-12-04T03:06:41.124Z,98625.95
2018-12-04T03:09:14.762Z,98625.95
2018-12-04T03:11:48.544Z,98625.73
2018-12-04T03:14:20.045Z,98624.71
2018-12-04T03:16:49.277Z,98628.00
2018-12-04T03:19:20.904Z,98630.64
2018-12-04T03:21:49.328Z,98631.73
2018-12-04T03:24:21.210Z,98633.72
2018-12-04T03:26:49.401Z,98632.01
2018-12-04T03:29:17.816Z,98642.83
2018-12-04T03:31:51.908Z,98642.89
2018-12-04T03:34:20.108Z,98653.94
2018-12-04T03:36:49.901Z,98666.33
2018-12-04T03:39:21.630Z,98670.48
2018-12-04T03:41:50.054Z,98677.73
2018-12-04T03:44:19.817Z,98625.27
2018-12-04T03:46:52.629Z,98702.18
2018-12-04T03:49:20.875Z,98694.66
2018-12-04T03:51:52.483Z,98702.18
2018-12-04T03:54:26.799Z,98698.72
2018-12-04T03:57:00.670Z,98709.41
2018-12-04T03:59:32.163Z,98719.13
2018-12-04T04:05:08.623Z,98727.63
2018-12-04T04:07:36.768Z,98737.23
2018-12-04T04:10:06.179Z,98742.92
2018-12-04T04:12:34.274Z,98750.61
2018-12-04T04:15:08.989Z,98752.13
2018-12-04T04:17:43.564Z,98757.65
2018-12-04T04:20:12.313Z,98755.47
2018-12-04T04:22:42.344Z,98758.96
2018-12-04T04:25:13.632Z,98764.67
2018-12-04T04:27:45.135Z,98771.02
2018-12-04T04:30:19.717Z,98778.62
2018-12-04T04:32:51.232Z,98783.93
2018-12-04T04:35:25.787Z,98788.13
2018-12-04T04:37:57.481Z,98794.94
2018-12-04T04:40:29.238Z,98804.73
2018-12-04T04:42:59.302Z,98814.22
2018-12-04T04:45:29.359Z,98817.73
2018-12-04T04:48:02.979Z,98819.92
2018-12-04T04:53:30.641Z,98831.91
2018-12-04T04:55:58.787Z,98833.11
2018-12-04T04:58:26.872Z,98840.24
2018-12-04T05:00:54.979Z,98847.52
2018-12-04T05:03:23.176Z,98848.69
2018-12-04T05:05:51.369Z,98842.47
2018-12-04T05:08:19.430Z,98848.29
2018-12-04T05:10:47.636Z,98862.66
2018-12-04T05:13:15.925Z,98868.82
2018-12-04T05:15:44.021Z,98879.22
2018-12-04T05:18:21.604Z,98885.19
2018-12-04T05:20:49.673Z,98892.38
2018-12-04T05:23:18.032Z,98906.30
2018-12-04T05:25:46.136Z,98913.72
2018-12-04T05:28:14.380Z,98927.20
2018-12-04T05:30:44.106Z,98926.84
2018-12-04T05:33:12.341Z,98923.88
2018-12-04T05:35:40.615Z,98931.27
2018-12-04T05:38:08.874Z,98935.70
2018-12-04T05:40:38.372Z,98945.98
2018-12-04T05:43:12.393Z,98962.16
2018-12-04T05:45:42.018Z,98969.21
2018-12-04T05:48:14.877Z,98976.30
2018-12-04T05:50:49.608Z,98981.17
2018-12-04T05:53:33.316Z,98993.84
2018-12-04T05:56:04.741Z,99001.48
2018-12-04T05:58:36.121Z,99008.97
2018-12-04T06:01:04.351Z,99015.92
2018-12-04T06:03:38.627Z,99031.56
2018-12-04T06:06:06.873Z,99043.59
2018-12-04T06:08:35.219Z,99057.31
2018-12-04T06:11:03.565Z,99060.03
2018-12-04T06:13:31.730Z,99068.95
2018-12-04T06:15:59.920Z,99069.03
2018-12-04T06:18:28.143Z,99080.08
2018-12-04T06:20:56.244Z,99090.45
2018-12-04T06:23:24.371Z,99093.76
2018-12-04T06:28:59.030Z,99109.40
2018-12-04T06:31:28.642Z,99106.42
2018-12-04T06:33:56.798Z,99116.78
2018-12-04T06:36:37.612Z,99119.27
2018-12-04T06:39:12.353Z,99122.90
2018-12-04T06:41:46.237Z,99132.09
2018-12-04T06:44:20.201Z,99130.45
2018-12-04T06:46:51.631Z,99139.50
2018-12-04T06:49:25.486Z,99145.59
2018-12-04T06:52:00.130Z,99154.61
2018-12-04T06:54:34.149Z,99152.63
2018-12-04T06:57:15.024Z,99167.74
2018-12-04T06:59:46.801Z,99179.57
2018-12-04T07:02:21.393Z,99191.41
2018-12-04T07:04:49.475Z,99202.93
2018-12-04T07:07:21.864Z,99211.16
2018-12-04T07:09:53.243Z,99223.81
2018-12-04T07:12:25.026Z,99224.45
2018-12-04T07:14:58.984Z,99232.64
2018-12-04T07:17:27.153Z,99246.63
2018-12-04T07:19:55.267Z,99248.27
2018-12-04T07:22:37.161Z,99257.44
2018-12-04T07:25:17.837Z,99269.92
2018-12-04T07:27:49.484Z,99276.36
2018-12-04T07:30:23.652Z,99273.89
2018-12-04T07:32:53.345Z,99277.49
2018-12-04T07:35:25.137Z,99277.80
2018-12-04T07:37:53.276Z,99279.46
2018-12-04T07:40:21.436Z,99285.84
2018-12-04T07:42:49.542Z,99290.92
2018-12-04T07:45:19.643Z,99300.10
2018-12-04T07:47:51.014Z,99306.83
2018-12-04T07:50:19.126Z,99311.11
2018-12-04T07:52:47.224Z,99314.20
2018-12-04T07:55:21.559Z,99321.27
2018-12-04T07:57:55.448Z,99325.52
2018-12-04T08:00:23.610Z,99337.51
2018-12-04T08:02:51.783Z,99346.22
2018-12-04T08:07:57.525Z,99356.41
2018-12-04T08:10:25.679Z,99354.23
2018-12-04T08:13:12.942Z,99367.22
2018-12-04T08:15:46.949Z,99363.40
2018-12-04T08:18:18.158Z,99380.81
2018-12-04T08:20:46.288Z,99377.97
2018-12-04T08:23:14.431Z,99388.13
2018-12-04T08:25:42.597Z,99385.80
2018-12-04T08:28:15.729Z,99388.06
2018-12-04T08:30:43.930Z,99392.66
2018-12-04T08:33:12.019Z,99395.91
2018-12-04T08:35:40.138Z,99408.73
2018-12-04T08:38:08.296Z,99418.42
2018-12-04T08:40:36.418Z,99422.89
2018-12-04T08:43:04.615Z,99431.75
2018-12-04T08:45:32.723Z,99444.92
2018-12-04T08:48:04.627Z,99453.63
2018-12-04T08:53:35.923Z,99467.91
2018-12-04T08:56:16.657Z,99475.30
2018-12-04T08:58:44.857Z,99477.26
2018-12-04T09:01:13.580Z,99483.02
2018-12-04T09:03:41.719Z,99496.02
2018-12-04T09:08:42.666Z,99506.07
2018-12-04T09:11:17.175Z,99508.23
2018-12-04T09:13:49.095Z,99513.14
2018-12-04T09:16:23.486Z,99511.19
2018-12-04T09:18:58.554Z,99519.70
2018-12-04T09:21:29.096Z,99477.23
2018-12-04T09:24:00.719Z,99532.88
2018-12-04T09:26:32.980Z,99531.42
2018-12-04T09:29:06.528Z,99543.13
2018-12-04T09:31:37.857Z,99549.71
2018-12-04T09:34:05.926Z,99560.39
2018-12-04T09:36:40.156Z,99553.42
2018-12-04T09:39:11.981Z,99555.11
2018-12-04T09:41:43.439Z,99565.86
2018-12-04T09:44:14.832Z,99570.22
2018-12-04T09:46:48.470Z,99574.81
2018-12-04T09:49:23.613Z,99575.21
2018-12-04T09:51:55.324Z,99579.34
2018-12-04T09:54:27.333Z,99587.01
2018-12-04T09:56:58.890Z,99586.20
2018-12-04T09:59:30.379Z,99593.95
2018-12-04T10:02:01.577Z,99600.38
2018-12-04T10:04:33.713Z,99603.36
2018-12-04T10:12:02.340Z,99619.02
2018-12-04T10:14:37.543Z,99611.93
2018-12-04T10:17:09.620Z,99627.22
2018-12-04T10:19:41.631Z,99625.25
2018-12-04T10:22:16.078Z,99634.60
2018-12-04T10:24:47.655Z,99634.60
2018-12-04T10:27:17.931Z,99636.83
2018-12-04T10:29:51.632Z,99637.97
2018-12-04T10:32:26.009Z,99644.13
2018-12-04T10:34:57.584Z,99644.67
2018-12-04T10:37:40.064Z,99642.63
2018-12-04T10:40:09.153Z,99648.42
2018-12-04T10:42:40.753Z,99648.48
2018-12-04T10:45:14.785Z,99651.53
2018-12-04T10:47:44.896Z,99652.83
2018-12-04T10:50:17.108Z,99656.48
2018-12-04T10:52:48.248Z,99654.06
2018-12-04T10:55:19.629Z,99658.16
2018-12-04T10:57:47.794Z,99659.84
2018-12-04T11:00:21.582Z,99664.73
2018-12-04T11:05:54.224Z,99691.22
2018-12-04T11:08:22.632Z,99696.83
2018-12-04T11:13:59.233Z,99705.43
2018-12-04T11:16:37.100Z,99705.66
2018-12-04T11:19:05.291Z,99706.38
2018-12-04T11:21:39.786Z,99710.91
2018-12-04T11:24:10.997Z,99709.17
2018-12-04T11:26:45.217Z,99718.25
2018-12-04T11:29:16.593Z,99725.51
2018-12-04T11:31:50.880Z,99726.95
2018-12-04T11:34:22.514Z,99718.30
2018-12-04T11:36:54.239Z,99716.05
2018-12-04T11:39:26.259Z,99726.48
2018-12-04T11:42:00.782Z,99730.38
2018-12-04T11:44:29.673Z,99736.75
2018-12-04T11:46:59.691Z,99680.85
2018-12-04T11:52:33.798Z,99748.64
2018-12-04T11:55:01.874Z,99747.03
2018-12-04T11:57:30.029Z,99746.25
2018-12-04T12:00:08.520Z,99754.84
2018-12-04T12:02:40.526Z,99756.71
2018-12-04T12:05:31.542Z,99763.72
2018-12-04T12:08:00.715Z,99774.90
2018-12-04T12:10:32.162Z,99772.60
2018-12-04T12:13:04.138Z,99770.87
2018-12-04T12:15:38.603Z,99773.37
2018-12-04T12:18:08.335Z,99771.22
2018-12-04T12:20:41.479Z,99773.70
2018-12-04T12:23:10.644Z,99780.98
2018-12-04T12:25:41.834Z,99785.58
2018-12-04T12:28:16.270Z,99785.72
2018-12-04T12:30:49.894Z,99790.43
2018-12-04T12:36:23.862Z,99803.00
2018-12-04T12:38:59.064Z,99809.55
2018-12-04T12:41:30.842Z,99814.53
2018-12-04T12:43:59.153Z,99815.36
2018-12-04T12:46:27.322Z,99817.16
2018-12-04T12:48:55.412Z,99809.58
2018-12-04T12:51:23.796Z,99812.98
2018-12-04T12:53:58.008Z,99815.44
2018-12-04T12:56:26.152Z,99816.75
2018-12-04T12:58:54.295Z,99821.55
2018-12-04T13:01:22.394Z,99825.66
2018-12-04T13:03:50.614Z,99829.09
2018-12-04T13:06:18.808Z,99833.55
2018-12-04T13:08:46.971Z,99844.45
2018-12-04T13:11:15.926Z,99844.34
2018-12-04T13:13:44.081Z,99836.55
2018-12-04T13:16:12.264Z,99839.22
2018-12-04T13:21:18.286Z,99834.43
2018-12-04T13:23:46.455Z,99847.95
2018-12-04T13:26:19.605Z,99837.06
2018-12-04T13:28:47.720Z,99841.05
2018-12-04T13:31:15.904Z,99848.79
2018-12-04T13:33:44.083Z,99852.55
2018-12-04T13:36:12.228Z,99848.65
2018-12-04T13:41:40.277Z,99864.50
2018-12-04T13:44:08.463Z,99866.17
2018-12-04T13:46:36.670Z,99875.95
2018-12-04T13:49:05.098Z,99879.02
2018-12-04T13:51:33.285Z,99888.14
2018-12-04T13:54:01.390Z,99883.77
2018-12-04T13:56:29.605Z,99892.84
2018-12-04T13:58:57.791Z,99892.86
2018-12-04T14:01:26.131Z,99891.22
2018-12-04T14:03:54.301Z,99892.63
2018-12-04T14:06:22.442Z,99896.68
2018-12-04T14:08:50.685Z,99897.14
2018-12-04T14:11:18.840Z,99902.94
2018-12-04T14:13:47.096Z,99906.87
2018-12-04T14:16:15.313Z,99907.65
2018-12-04T14:18:43.559Z,99911.91
2018-12-04T14:21:12.506Z,99911.21
2018-12-04T14:23:41.290Z,99919.23
2018-12-04T14:26:09.455Z,99926.91
2018-12-04T14:28:37.630Z,99930.52
2018-12-04T14:31:05.921Z,99925.80
2018-12-04T14:33:34.152Z,99934.62
2018-12-04T14:36:06.236Z,99936.00
2018-12-04T14:38:53.140Z,99941.67
2018-12-04T14:41:22.486Z,99951.61
2018-12-04T14:43:53.914Z,99955.44
2018-12-04T14:46:22.197Z,99953.27
2018-12-04T14:49:13.691Z,99962.27
2018-12-04T14:51:41.873Z,99969.56
2018-12-04T14:54:10.120Z,99972.73
2018-12-04T14:56:38.384Z,99943.08
2018-12-04T14:59:06.742Z,99982.04
2018-12-04T15:01:35.005Z,99991.40
2018-12-04T15:04:03.161Z,99993.57
2018-12-04T15:06:31.321Z,99998.63
2018-12-04T15:08:59.966Z,100001.25
2018-12-04T15:11:28.137Z,100004.84
2018-12-04T15:13:56.343Z,100012.31
2018-12-04T15:16:24.589Z,100014.06
2018-12-04T15:18:52.873Z,100021.92
2018-12-04T15:21:20.987Z,100030.80
2018-12-04T15:23:49.104Z,100041.24
2018-12-04T15:26:17.238Z,100046.24
2018-12-04T15:28:46.000Z,100045.24
2018-12-04T15:31:14.247Z,100055.22
2018-12-04T15:33:42.410Z,100058.45
2018-12-04T15:36:10.620Z,100061.72
2018-12-04T15:38:38.756Z,100065.80
2018-12-04T15:41:07.045Z,100080.84
2018-12-04T15:43:35.233Z,100078.45
2018-12-04T15:46:03.581Z,100077.98
2018-12-04T15:48:31.944Z,100086.05
2018-12-04T15:51:00.349Z,100093.93
2018-12-04T15:53:28.544Z,100089.33
2018-12-04T15:55:56.892Z,100092.61
2018-12-04T15:58:25.067Z,100095.34
2018-12-04T16:00:53.379Z,100096.86
2018-12-04T16:03:21.444Z,100100.27
2018-12-04T16:05:49.622Z,100100.09
2018-12-04T16:08:18.819Z,100106.52
2018-12-04T16:10:46.910Z,100111.88
2018-12-04T16:13:16.708Z,100118.61
2018-12-04T16:15:45.297Z,100121.09
2018-12-04T16:18:13.428Z,100124.55
2018-12-04T16:20:41.736Z,100126.97
2018-12-04T16:23:09.843Z,100130.41
2018-12-04T16:25:38.052Z,100139.05
2018-12-04T16:28:06.239Z,100145.65
2018-12-04T16:30:34.438Z,100157.92
2018-12-04T16:33:02.681Z,100162.79
2018-12-04T16:35:30.905Z,100170.58
2018-12-04T16:38:04.256Z,100172.70
2018-12-04T16:40:32.487Z,100177.52
2018-12-04T16:43:00.670Z,100175.14
2018-12-04T16:45:29.691Z,100183.27
2018-12-04T16:47:58.307Z,100195.78
2018-12-04T16:50:27.178Z,100196.05
2018-12-04T16:52:55.433Z,100200.88
2018-12-04T16:55:23.658Z,100210.82
2018-12-04T16:57:51.751Z,100218.43
2018-12-04T17:00:20.010Z,100218.53
2018-12-04T17:02:48.113Z,100218.17
2018-12-04T17:05:16.276Z,100221.72
2018-12-04T17:07:44.703Z,100226.84
2018-12-04T17:10:13.369Z,100226.04
2018-12-04T17:12:41.618Z,100222.02
2018-12-04T17:15:11.229Z,100226.78
2018-12-04T17:17:39.414Z,100222.20
2018-12-04T17:20:08.603Z,100224.30
2018-12-04T17:22:36.687Z,100222.24
2018-12-04T17:25:05.143Z,100223.15
2018-12-04T17:27:33.342Z,100225.70
2018-12-04T17:30:02.248Z,100229.50
2018-12-04T17:32:31.046Z,100230.72
2018-12-04T17:34:59.263Z,100238.70
2018-12-04T17:37:27.566Z,100245.62
2018-12-04T17:39:55.707Z,100243.40
2018-12-04T17:42:23.897Z,100253.74
2018-12-04T17:44:52.161Z,100260.16
2018-12-04T17:47:20.277Z,100258.69
2018-12-04T17:49:48.543Z,100260.67
2018-12-04T17:52:16.686Z,100261.96
2018-12-04T17:54:44.834Z,100259.91
2018-12-04T17:57:14.439Z,100257.29
2018-12-04T17:59:43.074Z,100267.56
2018-12-04T18:02:11.277Z,100273.12
2018-12-04T18:04:39.401Z,100260.19
2018-12-04T18:07:13.289Z,100278.53
2018-12-04T18:09:47.785Z,100280.55
2018-12-04T18:12:15.899Z,100283.28
2018-12-04T18:14:44.194Z,100286.37
2018-12-04T18:17:12.278Z,100287.47
2018-12-04T18:19:40.423Z,100290.47
2018-12-04T18:22:08.538Z,100298.77
2018-12-04T18:24:36.642Z,100298.05
2018-12-04T18:27:04.871Z,100298.32
2018-12-04T18:29:33.014Z,100298.45
2018-12-04T18:32:01.769Z,100297.45
2018-12-04T18:34:30.888Z,100302.78
2018-12-04T18:36:59.147Z,100307.95
2018-12-04T18:39:27.351Z,100318.22
2018-12-04T18:42:00.522Z,100321.71
2018-12-04T18:44:32.454Z,100319.99
2018-12-04T18:47:00.548Z,100318.53
2018-12-04T18:49:29.500Z,100323.96
2018-12-04T18:51:59.318Z,100321.72
2018-12-04T18:54:27.935Z,100317.06
2018-12-04T18:57:01.993Z,100313.73
2018-12-04T18:59:30.169Z,100319.19
2018-12-04T19:02:01.567Z,100319.81
2018-12-04T19:04:29.731Z,100320.27
2018-12-04T19:06:58.110Z,100323.19
2018-12-04T19:09:26.327Z,100324.07
2018-12-04T19:11:56.299Z,100326.64
2018-12-04T19:14:26.221Z,100334.21
2018-12-04T19:16:54.489Z,100330.70
2018-12-04T19:19:22.889Z,100332.30
2018-12-04T19:21:50.981Z,100340.36
2018-12-04T19:24:19.120Z,100342.08
2018-12-04T19:26:47.285Z,100351.54
2018-12-04T19:29:15.490Z,100348.80
2018-12-04T19:31:45.026Z,100353.78
2018-12-04T19:34:13.641Z,100356.11
2018-12-04T19:36:41.992Z,100357.48
2018-12-04T19:39:10.219Z,100358.90
2018-12-04T19:41:38.418Z,100363.70
2018-12-04T19:44:06.814Z,100371.20
2018-12-04T19:46:35.470Z,100375.55
2018-12-04T19:49:03.771Z,100376.56
2018-12-04T19:51:32.258Z,100386.03
2018-12-04T19:54:00.995Z,100392.47
2018-12-04T19:56:29.221Z,100399.64
2018-12-04T19:58:57.542Z,100402.83
2018-12-04T20:01:25.931Z,100408.91
2018-12-04T20:03:54.184Z,100406.91
2018-12-04T20:06:22.577Z,100414.87
2018-12-04T20:08:52.212Z,100409.95
2018-12-04T20:11:20.616Z,100407.40
2018-12-04T20:13:48.796Z,100405.61
2018-12-04T20:16:17.079Z,100415.27
2018-12-04T20:18:45.207Z,100422.02
2018-12-04T20:21:13.622Z,100425.67
2018-12-04T20:23:41.949Z,100430.33
2018-12-04T20:26:10.115Z,100432.48
2018-12-04T20:28:43.580Z,100421.05
2018-12-04T20:31:11.840Z,100437.03
2018-12-04T20:33:41.182Z,100437.05
2018-12-04T20:36:10.930Z,100433.69
2018-12-04T20:38:40.036Z,100442.79
2018-12-04T20:41:08.254Z,100441.13
2018-12-04T20:43:36.452Z,100441.50
2018-12-04T20:46:06.117Z,100439.47
2018-12-04T20:48:34.600Z,100445.88
2018-12-04T20:51:02.812Z,100455.50
2018-12-04T20:53:30.970Z,100458.63
2018-12-04T20:55:59.166Z,100458.23
2018-12-04T20:58:27.322Z,100464.94
2018-12-04T21:00:55.578Z,100464.98
2018-12-04T21:03:23.697Z,100469.66
2018-12-04T21:05:51.902Z,100476.19
2018-12-04T21:08:40.252Z,100477.61
2018-12-04T21:11:08.442Z,100479.11
2018-12-04T21:13:37.443Z,100485.06
2018-12-04T21:16:05.843Z,100494.31
2018-12-04T21:18:33.959Z,100493.98
2018-12-04T21:21:02.174Z,100490.51
2018-12-04T21:23:30.346Z,100493.63
2018-12-04T21:25:58.476Z,100498.87
2018-12-04T21:28:26.645Z,100502.59
2018-12-04T21:31:00.504Z,100502.84
2018-12-04T21:35:37.804Z,100506.33
2018-12-04T21:40:17.504Z,100503.14
2018-12-04T21:42:51.232Z,100503.67
2018-12-04T21:45:25.046Z,100507.28
2018-12-04T21:50:54.075Z,100515.75
2018-12-04T21:53:22.340Z,100520.93
2018-12-04T21:55:50.442Z,100527.78
2018-12-04T21:58:19.637Z,100526.33
2018-12-04T22:00:48.019Z,100534.80
2018-12-04T22:03:16.181Z,100542.17
2018-12-04T22:05:44.290Z,100551.94
2018-12-04T22:08:12.444Z,100554.69
2018-12-04T22:10:40.597Z,100554.98
2018-12-04T22:13:08.709Z,100559.28
2018-12-04T22:15:36.925Z,100563.69
2018-12-04T22:18:05.153Z,100567.45
2018-12-04T22:20:33.859Z,100568.29
2018-12-04T22:23:02.087Z,100568.09
2018-12-04T22:25:30.291Z,100563.16
2018-12-04T22:27:58.534Z,100559.58
2018-12-04T22:30:28.177Z,100559.14
2018-12-04T22:32:56.350Z,100552.83
2018-12-04T22:35:24.667Z,100551.20
2018-12-04T22:37:54.555Z,100555.09
2018-12-04T22:40:22.727Z,100560.10
2018-12-04T22:42:50.892Z,100560.82
2018-12-04T22:45:25.235Z,100573.05
2018-12-04T22:47:54.745Z,100576.84
2018-12-04T22:50:24.054Z,100573.45
2018-12-04T22:52:52.276Z,100576.92
2018-12-04T22:55:20.452Z,100573.14
2018-12-04T22:57:48.902Z,100573.14
2018-12-04T23:00:28.513Z,100567.52
2018-12-04T23:02:56.849Z,100566.08
2018-12-04T23:05:24.988Z,100566.02
2018-12-04T23:07:54.171Z,100561.01
2018-12-04T23:10:22.328Z,100561.59
2018-12-04T23:12:50.494Z,100559.63
2018-12-04T23:15:18.641Z,100558.42
2018-12-04T23:17:48.100Z,100554.78
2018-12-04T23:20:16.311Z,100549.52
2018-12-04T23:22:44.409Z,100549.56
2018-12-04T23:25:14.594Z,100549.44
2018-12-04T23:27:43.193Z,100539.43
2018-12-04T23:30:11.640Z,100537.56
2018-12-04T23:32:39.742Z,100543.65
2018-12-04T23:35:08.120Z,100549.97
2018-12-04T23:37:36.200Z,100552.24
2018-12-04T23:40:05.093Z,100555.45
2018-12-04T23:42:33.135Z,100559.73
2018-12-04T23:45:01.252Z,100560.98
2018-12-04T23:47:29.481Z,100558.17
2018-12-04T23:49:57.692Z,100561.56
2018-12-04T23:52:25.857Z,100562.05
2018-12-04T23:54:54.102Z,100550.28
2018-12-04T23:57:22.291Z,100545.98
2018-12-04T23:59:51.335Z,100558.47
